createdAt,value
2023-03-30T00:01:14.592Z,94907.56
2023-03-30T00:03:43.063Z,94896.59
2023-03-30T00:06:12.502Z,94903.69
2023-03-30T00:08:39.129Z,94902.75
2023-03-30T00:11:06.246Z,94889.31
2023-03-30T00:13:35.453Z,94889.81
2023-03-30T00:16:02.939Z,94882.03
2023-03-30T00:18:32.173Z,94878.00
2023-03-30T00:20:59.218Z,94877.84
2023-03-30T00:23:26.198Z,94873.31
2023-03-30T00:25:52.806Z,94866.69
2023-03-30T00:28:19.758Z,94873.75
2023-03-30T00:30:48.111Z,94876.34
2023-03-30T00:33:15.112Z,94860.06
2023-03-30T00:35:42.210Z,94863.09
2023-03-30T00:38:09.471Z,94853.91
2023-03-30T00:40:36.734Z,94843.56
2023-03-30T00:43:05.978Z,94854.88
2023-03-30T00:45:34.478Z,94853.09
2023-03-30T00:48:18.039Z,94839.84
2023-03-30T00:50:45.981Z,94844.22
2023-03-30T00:53:22.646Z,94843.25
2023-03-30T00:55:51.941Z,94845.34
2023-03-30T00:58:21.335Z,94844.22
2023-03-30T01:00:48.613Z,94842.09
2023-03-30T01:03:37.607Z,94839.81
2023-03-30T01:06:07.621Z,94834.78
2023-03-30T01:08:34.768Z,94834.94
2023-03-30T01:11:03.564Z,94840.78
2023-03-30T01:13:35.925Z,94846.59
2023-03-30T01:16:06.223Z,94837.19
2023-03-30T01:18:55.463Z,94838.94
2023-03-30T01:22:04.800Z,94834.75
2023-03-30T01:24:49.213Z,94837.34
2023-03-30T01:28:00.986Z,94833.78
2023-03-30T01:30:37.435Z,94836.84
2023-03-30T01:33:28.785Z,94830.41
2023-03-30T01:36:40.180Z,94818.09
2023-03-30T01:39:12.924Z,94825.19
2023-03-30T01:41:57.797Z,94835.03
2023-03-30T01:44:41.731Z,94825.72
2023-03-30T01:47:26.807Z,94831.38
2023-03-30T01:50:07.608Z,94839.94
2023-03-30T01:52:42.455Z,94845.94
2023-03-30T01:55:16.945Z,94847.25
2023-03-30T01:58:08.105Z,94847.41
2023-03-30T02:00:38.247Z,94847.59
2023-03-30T02:03:12.411Z,94853.25
2023-03-30T02:05:40.856Z,94844.84
2023-03-30T02:08:12.443Z,94856.31
2023-03-30T02:10:39.513Z,94855.34
2023-03-30T02:13:08.281Z,94861.34
2023-03-30T02:15:42.862Z,94863.13
2023-03-30T02:18:10.457Z,94866.34
2023-03-30T02:20:39.034Z,94858.41
2023-03-30T02:23:07.121Z,94868.13
2023-03-30T02:25:36.221Z,94865.00
2023-03-30T02:28:02.877Z,94878.91
2023-03-30T02:30:34.717Z,94874.88
2023-03-30T02:33:02.061Z,94878.84
2023-03-30T02:35:43.746Z,94877.75
2023-03-30T02:38:41.820Z,94892.06
2023-03-30T02:41:26.877Z,94882.81
2023-03-30T02:44:26.761Z,94886.66
2023-03-30T02:47:07.260Z,94883.94
2023-03-30T02:49:50.896Z,94884.13
2023-03-30T02:52:36.889Z,94881.72
2023-03-30T02:55:15.465Z,94890.59
2023-03-30T02:58:21.319Z,94893.16
2023-03-30T03:01:33.635Z,94898.94
2023-03-30T03:04:15.692Z,94889.38
2023-03-30T03:07:15.572Z,94860.09
2023-03-30T03:09:43.087Z,94853.78
2023-03-30T03:12:10.210Z,94855.22
2023-03-30T03:14:39.095Z,94847.06
2023-03-30T03:17:06.294Z,94822.25
2023-03-30T03:19:37.613Z,94830.91
2023-03-30T03:22:04.722Z,94839.06
2023-03-30T03:24:39.181Z,94850.75
2023-03-30T03:27:08.786Z,94849.28
2023-03-30T03:29:52.141Z,94855.75
2023-03-30T03:32:19.535Z,94870.47
2023-03-30T03:34:48.421Z,94882.81
2023-03-30T03:37:15.630Z,94883.22
2023-03-30T03:39:44.341Z,94884.31
2023-03-30T03:42:12.624Z,94880.31
2023-03-30T03:44:50.788Z,94884.06
2023-03-30T03:47:18.243Z,94883.50
2023-03-30T03:49:46.476Z,94886.69
2023-03-30T03:52:13.522Z,94899.09
2023-03-30T03:54:40.340Z,94916.66
2023-03-30T03:57:07.201Z,94921.66
2023-03-30T03:59:33.871Z,94918.50
2023-03-30T04:02:00.797Z,94928.06
2023-03-30T04:04:27.774Z,94937.81
2023-03-30T04:06:56.287Z,94952.16
2023-03-30T04:09:23.530Z,94949.75
2023-03-30T04:12:31.904Z,94979.69
2023-03-30T04:15:21.319Z,94995.03
2023-03-30T04:18:08.751Z,94983.19
2023-03-30T04:21:07.149Z,94980.09
2023-03-30T04:23:57.073Z,94969.84
2023-03-30T04:26:32.409Z,94974.91
2023-03-30T04:29:08.088Z,94978.16
2023-03-30T04:31:53.989Z,94973.00
2023-03-30T04:34:44.412Z,94960.53
2023-03-30T04:37:31.615Z,94963.38
2023-03-30T04:40:09.530Z,94953.22
2023-03-30T04:42:52.672Z,94938.69
2023-03-30T04:45:37.908Z,94937.16
2023-03-30T04:48:24.315Z,94930.94
2023-03-30T04:51:16.999Z,94925.44
2023-03-30T04:54:12.997Z,94922.72
2023-03-30T04:57:09.346Z,94920.28
2023-03-30T04:59:44.923Z,94910.66
2023-03-30T05:02:31.938Z,94900.69
2023-03-30T05:05:21.680Z,94884.13
2023-03-30T05:08:08.889Z,94897.53
2023-03-30T05:11:07.936Z,94891.69
2023-03-30T05:13:55.896Z,94876.50
2023-03-30T05:16:44.758Z,94871.66
2023-03-30T05:19:29.404Z,94874.09
2023-03-30T05:22:16.396Z,94866.19
2023-03-30T05:24:52.201Z,94864.44
2023-03-30T05:27:31.504Z,94856.56
2023-03-30T05:30:20.779Z,94850.34
2023-03-30T05:33:19.404Z,94836.56
2023-03-30T05:36:09.966Z,94844.31
2023-03-30T05:38:45.181Z,94841.25
2023-03-30T05:41:25.040Z,94834.25
2023-03-30T05:44:09.232Z,94833.16
2023-03-30T05:46:56.168Z,94821.03
2023-03-30T05:49:43.305Z,94817.47
2023-03-30T05:52:33.146Z,94807.97
2023-03-30T05:55:20.453Z,94793.69
2023-03-30T05:58:13.833Z,94776.28
2023-03-30T06:01:06.016Z,94782.59
2023-03-30T06:03:39.109Z,94775.84
2023-03-30T06:06:08.253Z,94766.22
2023-03-30T06:08:35.672Z,94773.50
2023-03-30T06:11:04.807Z,94775.63
2023-03-30T06:13:42.991Z,94777.94
2023-03-30T06:16:09.999Z,94768.84
2023-03-30T06:18:37.763Z,94759.16
2023-03-30T06:21:08.265Z,94758.34
2023-03-30T06:24:04.572Z,94755.56
2023-03-30T06:26:34.869Z,94759.06
2023-03-30T06:29:02.067Z,94759.72
2023-03-30T06:31:29.056Z,94748.44
2023-03-30T06:34:14.246Z,94744.06
2023-03-30T06:36:44.568Z,94737.41
2023-03-30T06:39:12.715Z,94728.19
2023-03-30T06:41:39.713Z,94726.00
2023-03-30T06:44:06.919Z,94720.97
2023-03-30T06:46:35.268Z,94723.53
2023-03-30T06:49:02.121Z,94707.00
2023-03-30T06:52:04.356Z,94705.53
2023-03-30T06:54:33.415Z,94707.94
2023-03-30T06:57:05.493Z,94699.44
2023-03-30T06:59:35.192Z,94700.97
2023-03-30T07:02:22.485Z,94688.88
2023-03-30T07:04:50.207Z,94688.25
2023-03-30T07:07:52.542Z,94680.56
2023-03-30T07:10:20.012Z,94678.94
2023-03-30T07:12:47.136Z,94683.94
2023-03-30T07:15:14.816Z,94684.78
2023-03-30T07:17:42.018Z,94691.56
2023-03-30T07:20:10.854Z,94677.38
2023-03-30T07:22:52.782Z,94685.25
2023-03-30T07:25:19.482Z,94684.94
2023-03-30T07:27:47.736Z,94699.94
2023-03-30T07:30:21.909Z,94692.19
2023-03-30T07:32:54.423Z,94680.44
2023-03-30T07:35:22.694Z,94687.22
2023-03-30T07:38:02.029Z,94700.63
2023-03-30T07:40:32.820Z,94668.50
2023-03-30T07:42:59.409Z,94684.31
2023-03-30T07:45:27.069Z,94673.81
2023-03-30T07:47:53.954Z,94655.59
2023-03-30T07:50:21.547Z,94635.06
2023-03-30T07:52:51.304Z,94655.25
2023-03-30T07:55:18.548Z,94653.13
2023-03-30T07:57:52.519Z,94654.78
2023-03-30T08:00:20.756Z,94650.41
2023-03-30T08:03:05.891Z,94653.63
2023-03-30T08:05:32.690Z,94657.16
2023-03-30T08:08:19.902Z,94644.53
2023-03-30T08:10:46.769Z,94644.34
2023-03-30T08:13:13.401Z,94649.84
2023-03-30T08:15:40.129Z,94643.34
2023-03-30T08:18:08.349Z,94643.22
2023-03-30T08:20:37.604Z,94641.59
2023-03-30T08:23:05.694Z,94647.06
2023-03-30T08:25:32.972Z,94648.50
2023-03-30T08:27:59.990Z,94646.88
2023-03-30T08:30:26.682Z,94656.91
2023-03-30T08:32:53.806Z,94647.88
2023-03-30T08:35:21.747Z,94650.09
2023-03-30T08:37:48.862Z,94658.69
2023-03-30T08:40:17.889Z,94648.59
2023-03-30T08:42:58.247Z,94644.97
2023-03-30T08:45:25.121Z,94622.06
2023-03-30T08:47:53.981Z,94624.13
2023-03-30T08:50:51.952Z,94627.19
2023-03-30T08:53:19.108Z,94639.22
2023-03-30T08:56:16.210Z,94641.06
2023-03-30T08:58:58.385Z,94646.59
2023-03-30T09:01:29.133Z,94647.94
2023-03-30T09:04:17.068Z,94649.66
2023-03-30T09:07:21.570Z,94664.31
2023-03-30T09:09:50.925Z,94656.38
2023-03-30T09:12:41.864Z,94655.16
2023-03-30T09:15:08.931Z,94657.41
2023-03-30T09:17:42.602Z,94660.28
2023-03-30T09:20:23.726Z,94660.50
2023-03-30T09:22:53.814Z,94655.44
2023-03-30T09:25:32.487Z,94659.75
2023-03-30T09:28:22.013Z,94666.28
2023-03-30T09:30:53.167Z,94670.41
2023-03-30T09:34:12.314Z,94661.72
2023-03-30T09:37:03.417Z,94666.22
2023-03-30T09:39:33.543Z,94675.31
2023-03-30T09:42:24.670Z,94676.78
2023-03-30T09:45:13.652Z,94680.59
2023-03-30T09:47:42.317Z,94675.53
2023-03-30T09:50:28.635Z,94669.88
2023-03-30T09:53:07.099Z,94665.13
2023-03-30T09:55:35.761Z,94659.44
2023-03-30T09:58:11.501Z,94661.16
2023-03-30T10:00:39.371Z,94659.22
2023-03-30T10:03:08.032Z,94656.47
2023-03-30T10:05:36.728Z,94661.56
2023-03-30T10:08:24.455Z,94669.91
2023-03-30T10:10:57.485Z,94670.16
2023-03-30T10:13:32.541Z,94674.56
2023-03-30T10:16:05.682Z,94663.78
2023-03-30T10:18:39.657Z,94669.00
2023-03-30T10:21:15.529Z,94671.53
2023-03-30T10:23:44.881Z,94675.38
2023-03-30T10:26:19.976Z,94685.41
2023-03-30T10:28:55.630Z,94693.44
2023-03-30T10:31:25.626Z,94689.97
2023-03-30T10:34:00.446Z,94693.94
2023-03-30T10:36:34.281Z,94699.75
2023-03-30T10:39:20.535Z,94704.84
2023-03-30T10:41:48.698Z,94711.63
2023-03-30T10:44:24.960Z,94712.75
2023-03-30T10:46:56.360Z,94722.16
2023-03-30T10:49:27.017Z,94732.72
2023-03-30T10:52:02.858Z,94729.59
2023-03-30T10:54:48.790Z,94733.94
2023-03-30T10:57:31.742Z,94751.88
2023-03-30T11:00:15.414Z,94753.34
2023-03-30T11:02:51.599Z,94758.19
2023-03-30T11:05:32.431Z,94770.72
2023-03-30T11:08:12.845Z,94771.88
2023-03-30T11:10:44.440Z,94773.91
2023-03-30T11:13:15.044Z,94775.50
2023-03-30T11:15:55.456Z,94785.13
2023-03-30T11:18:41.058Z,94785.00
2023-03-30T11:21:47.240Z,94785.19
2023-03-30T11:24:20.658Z,94787.59
2023-03-30T11:27:06.990Z,94801.25
2023-03-30T11:30:01.806Z,94795.66
2023-03-30T11:32:52.944Z,94791.34
2023-03-30T11:35:33.514Z,94812.53
2023-03-30T11:38:24.729Z,94820.97
2023-03-30T11:40:58.426Z,94831.38
2023-03-30T11:43:28.320Z,94833.56
2023-03-30T11:46:03.572Z,94840.59
2023-03-30T11:48:42.822Z,94863.75
2023-03-30T11:51:18.635Z,94871.03
2023-03-30T11:54:04.953Z,94872.50
2023-03-30T11:56:46.898Z,94876.00
2023-03-30T11:59:31.597Z,94871.78
2023-03-30T12:02:36.738Z,94887.56
2023-03-30T12:05:16.684Z,94887.88
2023-03-30T12:07:52.418Z,94899.59
2023-03-30T12:10:23.947Z,94887.19
2023-03-30T12:12:52.038Z,94862.66
2023-03-30T12:15:34.354Z,94870.25
2023-03-30T12:18:15.054Z,94879.00
2023-03-30T12:21:09.050Z,94867.44
2023-03-30T12:24:11.618Z,94860.72
2023-03-30T12:26:38.726Z,94857.25
2023-03-30T12:29:44.343Z,94845.84
2023-03-30T12:32:04.704Z,94841.84
2023-03-30T12:34:41.302Z,94832.59
2023-03-30T12:37:34.838Z,94835.53
2023-03-30T12:40:22.644Z,94847.34
2023-03-30T12:43:04.243Z,94856.25
2023-03-30T12:45:33.118Z,94851.19
2023-03-30T12:48:14.529Z,94846.31
2023-03-30T12:51:07.146Z,94832.41
2023-03-30T12:54:01.950Z,94841.41
2023-03-30T12:56:38.477Z,94836.59
2023-03-30T12:59:26.380Z,94821.50
2023-03-30T13:02:05.332Z,94825.78
2023-03-30T13:04:39.595Z,94821.00
2023-03-30T13:07:21.586Z,94812.69
2023-03-30T13:10:03.999Z,94801.72
2023-03-30T13:12:42.468Z,94802.06
2023-03-30T13:15:21.505Z,94806.56
2023-03-30T13:17:56.231Z,94799.50
2023-03-30T13:20:55.050Z,94801.66
2023-03-30T13:23:21.700Z,94785.13
2023-03-30T13:25:54.495Z,94790.91
2023-03-30T13:28:58.567Z,94791.06
2023-03-30T13:32:02.817Z,94795.50
2023-03-30T13:34:59.030Z,94786.44
2023-03-30T13:37:55.211Z,94789.53
2023-03-30T13:40:40.334Z,94795.00
2023-03-30T13:43:33.265Z,94783.59
2023-03-30T13:46:16.909Z,94788.94
2023-03-30T13:48:56.075Z,94789.78
2023-03-30T13:51:25.984Z,94801.44
2023-03-30T13:53:58.372Z,94801.06
2023-03-30T13:56:27.297Z,94800.09
2023-03-30T13:59:06.517Z,94803.34
2023-03-30T14:01:34.637Z,94811.25
2023-03-30T14:04:03.890Z,94804.31
2023-03-30T14:06:34.318Z,94798.13
2023-03-30T14:09:05.565Z,94787.22
2023-03-30T14:11:39.882Z,94790.91
2023-03-30T14:14:07.074Z,94804.69
2023-03-30T14:16:40.504Z,94804.19
2023-03-30T14:19:08.241Z,94801.91
2023-03-30T14:21:39.669Z,94784.44
2023-03-30T14:24:12.766Z,94749.09
2023-03-30T14:26:42.384Z,94758.63
2023-03-30T14:29:28.259Z,94747.69
2023-03-30T14:32:07.832Z,94742.22
2023-03-30T14:34:35.969Z,94744.34
2023-03-30T14:37:08.040Z,94760.16
2023-03-30T14:39:41.208Z,94760.31
2023-03-30T14:42:24.218Z,94757.38
2023-03-30T14:44:54.021Z,94752.88
2023-03-30T14:47:23.568Z,94741.59
2023-03-30T14:50:01.892Z,94746.09
2023-03-30T14:52:38.006Z,94733.69
2023-03-30T14:55:09.927Z,94733.34
2023-03-30T14:57:41.824Z,94742.84
2023-03-30T15:00:23.460Z,94737.06
2023-03-30T15:02:52.486Z,94751.06
2023-03-30T15:05:21.378Z,94754.75
2023-03-30T15:07:50.753Z,94762.47
2023-03-30T15:10:25.906Z,94776.72
2023-03-30T15:12:57.872Z,94771.84
2023-03-30T15:15:29.759Z,94772.94
2023-03-30T15:17:57.315Z,94771.31
2023-03-30T15:20:29.903Z,94775.25
2023-03-30T15:22:56.963Z,94778.81
2023-03-30T15:25:31.424Z,94764.03
2023-03-30T15:28:01.331Z,94752.56
2023-03-30T15:30:43.920Z,94779.84
2023-03-30T15:33:30.977Z,94753.34
2023-03-30T15:36:05.625Z,94752.56
2023-03-30T15:38:35.957Z,94754.50
2023-03-30T15:41:02.817Z,94743.66
2023-03-30T15:43:33.568Z,94739.13
2023-03-30T15:46:12.616Z,94738.34
2023-03-30T15:48:44.130Z,94728.97
2023-03-30T15:51:17.459Z,94721.06
2023-03-30T15:53:51.643Z,94702.22
2023-03-30T15:56:27.917Z,94691.88
2023-03-30T15:58:54.846Z,94692.03
2023-03-30T16:01:23.245Z,94703.50
2023-03-30T16:04:00.239Z,94699.63
2023-03-30T16:06:39.833Z,94700.44
2023-03-30T16:09:08.183Z,94728.34
2023-03-30T16:11:51.357Z,94728.53
2023-03-30T16:14:20.358Z,94732.88
2023-03-30T16:16:48.070Z,94732.72
2023-03-30T16:19:18.482Z,94733.22
2023-03-30T16:21:45.695Z,94732.25
2023-03-30T16:24:12.526Z,94716.41
2023-03-30T16:26:39.275Z,94732.56
2023-03-30T16:29:18.140Z,94734.81
2023-03-30T16:31:44.863Z,94729.50
2023-03-30T16:34:11.429Z,94723.53
2023-03-30T16:36:38.148Z,94712.72
2023-03-30T16:39:06.427Z,94719.63
2023-03-30T16:41:32.932Z,94712.56
2023-03-30T16:43:59.812Z,94719.47
2023-03-30T16:46:27.149Z,94714.03
2023-03-30T16:48:53.776Z,94714.66
2023-03-30T16:51:20.440Z,94720.13
2023-03-30T16:53:47.653Z,94720.28
2023-03-30T16:56:19.019Z,94727.03
2023-03-30T16:58:46.723Z,94734.59
2023-03-30T17:01:18.410Z,94731.56
2023-03-30T17:03:45.788Z,94740.34
2023-03-30T17:06:14.048Z,94743.13
2023-03-30T17:08:42.948Z,94739.94
2023-03-30T17:11:10.860Z,94736.38
2023-03-30T17:13:37.439Z,94739.31
2023-03-30T17:16:04.165Z,94738.84
2023-03-30T17:18:31.618Z,94737.53
2023-03-30T17:21:02.148Z,94743.97
2023-03-30T17:23:31.970Z,94748.66
2023-03-30T17:26:00.359Z,94739.09
2023-03-30T17:28:33.639Z,94739.78
2023-03-30T17:31:02.979Z,94759.81
2023-03-30T17:33:31.729Z,94760.59
2023-03-30T17:36:11.229Z,94751.72
2023-03-30T17:38:38.279Z,94758.63
2023-03-30T17:41:07.321Z,94748.31
2023-03-30T17:43:34.414Z,94757.44
2023-03-30T17:46:01.597Z,94754.16
2023-03-30T17:48:28.456Z,94767.25
2023-03-30T17:50:55.270Z,94755.75
2023-03-30T17:53:26.626Z,94766.44
2023-03-30T17:55:53.598Z,94777.09
2023-03-30T17:58:26.083Z,94778.88
2023-03-30T18:00:53.751Z,94778.53
2023-03-30T18:03:22.565Z,94767.91
2023-03-30T18:05:50.729Z,94761.88
2023-03-30T18:08:21.348Z,94770.94
2023-03-30T18:10:59.049Z,94773.38
2023-03-30T18:13:27.813Z,94768.75
2023-03-30T18:15:56.904Z,94783.63
2023-03-30T18:18:26.105Z,94782.78
2023-03-30T18:20:55.384Z,94776.84
2023-03-30T18:23:22.548Z,94784.09
2023-03-30T18:25:49.914Z,94787.56
2023-03-30T18:28:24.801Z,94804.31
2023-03-30T18:30:53.407Z,94799.25
2023-03-30T18:33:20.210Z,94804.19
2023-03-30T18:35:49.269Z,94806.66
2023-03-30T18:38:19.489Z,94801.06
2023-03-30T18:40:53.386Z,94807.88
2023-03-30T18:43:20.429Z,94805.63
2023-03-30T18:45:49.470Z,94799.53
2023-03-30T18:48:19.215Z,94803.66
2023-03-30T18:50:47.716Z,94796.63
2023-03-30T18:53:17.057Z,94794.50
2023-03-30T18:55:46.252Z,94796.03
2023-03-30T18:58:14.695Z,94793.69
2023-03-30T19:00:41.324Z,94799.19
2023-03-30T19:03:08.163Z,94802.16
2023-03-30T19:05:35.676Z,94806.81
2023-03-30T19:08:02.319Z,94807.88
2023-03-30T19:10:31.618Z,94804.28
2023-03-30T19:12:59.150Z,94803.38
2023-03-30T19:15:33.027Z,94805.91
2023-03-30T19:18:00.795Z,94804.41
2023-03-30T19:20:29.616Z,94807.41
2023-03-30T19:22:56.418Z,94807.00
2023-03-30T19:25:24.603Z,94810.91
2023-03-30T19:28:02.562Z,94804.50
2023-03-30T19:30:32.643Z,94817.38
2023-03-30T19:33:02.867Z,94815.63
2023-03-30T19:35:29.904Z,94830.03
2023-03-30T19:37:57.257Z,94852.78
2023-03-30T19:40:24.693Z,94871.56
2023-03-30T19:42:51.572Z,94896.09
2023-03-30T19:45:21.376Z,94902.94
2023-03-30T19:47:48.056Z,94919.03
2023-03-30T19:50:18.055Z,94919.31
2023-03-30T19:52:49.993Z,94912.25
2023-03-30T19:55:20.870Z,94919.97
2023-03-30T19:57:47.724Z,94886.81
2023-03-30T20:00:17.049Z,94864.13
2023-03-30T20:02:49.432Z,94848.06
2023-03-30T20:05:16.835Z,94850.31
2023-03-30T20:07:45.566Z,94830.44
2023-03-30T20:10:16.650Z,94834.22
2023-03-30T20:12:43.390Z,94831.44
2023-03-30T20:15:11.341Z,94835.25
2023-03-30T20:17:39.139Z,94834.75
2023-03-30T20:20:09.320Z,94842.47
2023-03-30T20:22:37.232Z,94842.16
2023-03-30T20:25:06.459Z,94845.56
2023-03-30T20:27:33.969Z,94836.72
2023-03-30T20:30:01.776Z,94843.94
2023-03-30T20:32:28.495Z,94837.25
2023-03-30T20:34:55.331Z,94831.13
2023-03-30T20:37:21.860Z,94824.94
2023-03-30T20:39:50.644Z,94821.06
2023-03-30T20:42:18.143Z,94815.81
2023-03-30T20:44:50.361Z,94814.63
2023-03-30T20:47:18.214Z,94806.81
2023-03-30T20:49:46.372Z,94799.91
2023-03-30T20:52:13.066Z,94813.00
2023-03-30T20:54:41.179Z,94805.56
2023-03-30T20:57:08.081Z,94801.41
2023-03-30T20:59:34.732Z,94800.56
2023-03-30T21:02:01.327Z,94802.03
2023-03-30T21:04:28.867Z,94799.63
2023-03-30T21:06:55.907Z,94791.13
2023-03-30T21:09:22.557Z,94797.53
2023-03-30T21:11:49.799Z,94797.78
2023-03-30T21:14:16.611Z,94781.81
2023-03-30T21:16:43.659Z,94789.72
2023-03-30T21:19:11.517Z,94791.34
2023-03-30T21:21:38.963Z,94786.88
2023-03-30T21:24:08.724Z,94785.25
2023-03-30T21:26:35.601Z,94775.41
2023-03-30T21:29:02.267Z,94777.84
2023-03-30T21:31:29.307Z,94785.81
2023-03-30T21:33:56.141Z,94779.91
2023-03-30T21:36:23.271Z,94778.50
2023-03-30T21:38:50.074Z,94775.13
2023-03-30T21:41:19.413Z,94768.47
2023-03-30T21:43:47.314Z,94768.63
2023-03-30T21:46:18.680Z,94765.13
2023-03-30T21:48:46.215Z,94766.69
2023-03-30T21:51:19.658Z,94762.13
2023-03-30T21:53:48.452Z,94756.56
2023-03-30T21:56:15.508Z,94758.75
2023-03-30T21:58:42.350Z,94762.97
2023-03-30T22:01:12.193Z,94756.25
2023-03-30T22:03:41.274Z,94750.59
2023-03-30T22:06:10.281Z,94751.50
2023-03-30T22:08:37.061Z,94747.72
2023-03-30T22:11:06.685Z,94742.78
2023-03-30T22:13:33.834Z,94746.75
2023-03-30T22:16:06.536Z,94750.94
2023-03-30T22:18:34.339Z,94752.81
2023-03-30T22:21:03.359Z,94746.81
2023-03-30T22:23:30.930Z,94743.38
2023-03-30T22:25:58.095Z,94741.13
2023-03-30T22:28:24.830Z,94737.16
2023-03-30T22:30:51.712Z,94737.03
2023-03-30T22:33:19.021Z,94736.97
2023-03-30T22:35:46.863Z,94735.44
2023-03-30T22:38:14.978Z,94731.38
2023-03-30T22:40:42.077Z,94722.00
2023-03-30T22:43:10.052Z,94712.13
2023-03-30T22:45:36.984Z,94702.16
2023-03-30T22:48:04.071Z,94712.59
2023-03-30T22:50:31.026Z,94704.00
2023-03-30T22:52:57.915Z,94702.28
2023-03-30T22:55:24.940Z,94690.16
2023-03-30T22:57:53.172Z,94679.22
2023-03-30T23:00:21.218Z,94676.59
2023-03-30T23:02:49.674Z,94673.91
2023-03-30T23:05:17.143Z,94675.91
2023-03-30T23:07:44.484Z,94673.56
2023-03-30T23:10:15.260Z,94667.50
2023-03-30T23:12:43.290Z,94668.53
2023-03-30T23:15:11.091Z,94669.50
2023-03-30T23:17:38.632Z,94667.38
2023-03-30T23:20:10.022Z,94664.53
2023-03-30T23:22:38.219Z,94667.09
2023-03-30T23:25:06.460Z,94658.25
2023-03-30T23:27:33.873Z,94668.03
2023-03-30T23:30:01.065Z,94663.25
2023-03-30T23:32:27.776Z,94663.84
2023-03-30T23:34:54.542Z,94662.53
2023-03-30T23:37:22.035Z,94663.34
2023-03-30T23:39:48.942Z,94657.91
2023-03-30T23:42:16.386Z,94648.94
2023-03-30T23:44:43.012Z,94639.69
2023-03-30T23:47:09.784Z,94638.56
2023-03-30T23:49:36.334Z,94634.38
2023-03-30T23:52:03.282Z,94628.06
2023-03-30T23:54:31.534Z,94623.72
2023-03-30T23:56:58.503Z,94618.38
2023-03-30T23:59:25.789Z,94611.25
